createdAt,value
2018-01-21T00:01:17.347Z,22.48
2018-01-21T00:03:43.561Z,25.37
2018-01-21T00:06:09.853Z,22.90
2018-01-21T00:08:36.042Z,22.10
2018-01-21T00:11:02.247Z,22.93
2018-01-21T00:13:28.417Z,24.37
2018-01-21T00:15:54.629Z,24.50
2018-01-21T00:18:20.824Z,24.53
2018-01-21T00:20:47.028Z,26.40
2018-01-21T00:23:13.988Z,23.92
2018-01-21T00:25:40.919Z,24.03
2018-01-21T00:28:07.103Z,24.00
2018-01-21T00:30:33.289Z,22.97
2018-01-21T00:33:00.241Z,23.87
2018-01-21T00:35:26.416Z,24.20
2018-01-21T00:37:52.605Z,23.77
2018-01-21T00:40:18.810Z,25.30
2018-01-21T00:42:45.032Z,23.50
2018-01-21T00:45:11.274Z,24.97
2018-01-21T00:47:37.587Z,25.77
2018-01-21T00:50:03.834Z,24.60
2018-01-21T00:52:30.024Z,24.00
2018-01-21T00:54:56.223Z,23.50
2018-01-21T00:57:22.433Z,24.87
2018-01-21T00:59:48.626Z,23.80
2018-01-21T01:02:15.579Z,22.02
2018-01-21T01:04:42.521Z,23.15
2018-01-21T01:07:08.710Z,23.60
2018-01-21T01:09:34.937Z,24.33
2018-01-21T01:12:01.136Z,23.10
2018-01-21T01:14:28.102Z,22.80
2018-01-21T01:16:55.078Z,24.17
2018-01-21T01:19:21.268Z,22.57
2018-01-21T01:21:48.232Z,20.90
2018-01-21T01:24:15.187Z,22.57
2018-01-21T01:26:42.129Z,24.40
2018-01-21T01:29:09.055Z,23.63
2018-01-21T01:31:35.271Z,22.40
2018-01-21T01:34:01.480Z,23.33
2018-01-21T01:36:27.711Z,20.88
2018-01-21T01:38:53.920Z,21.40
2018-01-21T01:41:20.841Z,21.58
2018-01-21T01:43:47.031Z,21.23
2018-01-21T01:46:13.274Z,21.15
2018-01-21T01:48:39.580Z,21.40
2018-01-21T01:51:05.795Z,23.75
2018-01-21T01:53:32.014Z,20.40
2018-01-21T01:55:58.206Z,23.00
2018-01-21T01:58:24.419Z,22.00
2018-01-21T02:00:50.661Z,20.47
2018-01-21T02:03:16.872Z,23.37
2018-01-21T02:05:43.824Z,21.52
2018-01-21T02:08:10.800Z,21.45
2018-01-21T02:10:36.999Z,22.23
2018-01-21T02:13:03.235Z,21.33
2018-01-21T02:15:30.200Z,22.42
2018-01-21T02:17:57.129Z,20.47
2018-01-21T02:20:23.340Z,22.03
2018-01-21T02:22:49.583Z,23.47
2018-01-21T02:25:15.797Z,22.50
2018-01-21T02:27:41.991Z,24.48
2018-01-21T02:30:08.940Z,23.77
2018-01-21T02:32:35.891Z,23.17
2018-01-21T02:35:02.839Z,22.65
2018-01-21T02:37:29.801Z,23.90
2018-01-21T02:39:56.059Z,22.48
2018-01-21T02:42:22.276Z,22.27
2018-01-21T02:44:48.508Z,23.70
2018-01-21T02:47:14.728Z,23.35
2018-01-21T02:49:41.848Z,23.42
2018-01-21T02:52:08.096Z,21.92
2018-01-21T02:54:34.304Z,22.50
2018-01-21T02:57:00.499Z,23.10
2018-01-21T02:59:27.476Z,24.02
2018-01-21T03:01:53.676Z,23.33
2018-01-21T03:04:20.592Z,22.90
2018-01-21T03:06:46.834Z,23.05
2018-01-21T03:09:13.028Z,23.75
2018-01-21T03:11:39.213Z,23.52
2018-01-21T03:14:06.206Z,24.83
2018-01-21T03:16:32.428Z,22.40
2018-01-21T03:18:58.645Z,24.00
2018-01-21T03:21:25.627Z,23.15
2018-01-21T03:23:51.819Z,23.73
2018-01-21T03:26:18.791Z,24.05
2018-01-21T03:28:45.035Z,22.27
2018-01-21T03:31:11.246Z,23.52
2018-01-21T03:33:37.482Z,24.70
2018-01-21T03:36:04.434Z,24.55
2018-01-21T03:38:31.400Z,22.50
2018-01-21T03:40:57.606Z,23.95
2018-01-21T03:43:24.595Z,24.80
2018-01-21T03:45:50.822Z,22.92
2018-01-21T03:48:17.019Z,25.75
2018-01-21T03:50:44.875Z,24.60
2018-01-21T03:53:11.111Z,23.67
2018-01-21T03:55:37.343Z,24.33
2018-01-21T03:58:03.604Z,23.40
2018-01-21T04:00:30.563Z,24.08
2018-01-21T04:02:57.514Z,23.63
2018-01-21T04:05:23.741Z,24.27
2018-01-21T04:07:50.668Z,23.83
2018-01-21T04:10:16.868Z,22.90
2018-01-21T04:12:43.124Z,22.90
2018-01-21T04:15:09.328Z,23.10
2018-01-21T04:17:36.285Z,23.52
2018-01-21T04:20:02.544Z,22.52
2018-01-21T04:22:28.712Z,24.17
2018-01-21T04:24:55.689Z,24.02
2018-01-21T04:27:21.928Z,23.40
2018-01-21T04:29:48.156Z,24.00
2018-01-21T04:32:14.367Z,22.20
2018-01-21T04:34:41.344Z,22.65
2018-01-21T04:37:08.256Z,23.60
2018-01-21T04:39:34.446Z,22.67
2018-01-21T04:42:00.633Z,22.90
2018-01-21T04:44:27.573Z,22.20
2018-01-21T04:46:54.562Z,23.23
2018-01-21T04:49:20.767Z,22.25
2018-01-21T04:51:47.032Z,23.80
2018-01-21T04:54:13.238Z,24.70
2018-01-21T04:56:39.569Z,23.73
2018-01-21T04:59:05.780Z,22.70
2018-01-21T05:01:31.988Z,22.62
2018-01-21T05:03:58.179Z,23.60
2018-01-21T05:06:25.135Z,24.48
2018-01-21T05:08:52.095Z,22.70
2018-01-21T05:11:19.054Z,22.55
2018-01-21T05:13:45.276Z,22.50
2018-01-21T05:16:12.235Z,23.77
2018-01-21T05:18:39.216Z,24.02
2018-01-21T05:21:05.405Z,21.37
2018-01-21T05:23:32.349Z,23.12
2018-01-21T05:25:58.543Z,21.33
2018-01-21T05:28:24.752Z,24.10
2018-01-21T05:30:50.927Z,25.60
2018-01-21T05:33:17.180Z,22.60
2018-01-21T05:35:43.385Z,22.30
2018-01-21T05:38:09.577Z,22.45
2018-01-21T05:40:35.775Z,22.48
2018-01-21T05:43:01.989Z,22.55
2018-01-21T05:45:28.211Z,20.25
2018-01-21T05:47:54.422Z,21.67
2018-01-21T05:50:20.632Z,21.45
2018-01-21T05:52:46.898Z,22.00
2018-01-21T05:55:13.125Z,23.13
2018-01-21T05:57:39.311Z,22.47
2018-01-21T06:00:05.501Z,22.45
2018-01-21T06:02:31.711Z,23.92
2018-01-21T06:04:57.920Z,24.65
2018-01-21T06:07:24.135Z,25.30
2018-01-21T06:09:50.351Z,25.37
2018-01-21T06:12:16.531Z,23.35
2018-01-21T06:14:42.733Z,23.12
2018-01-21T06:17:08.951Z,26.13
2018-01-21T06:19:35.179Z,24.83
2018-01-21T06:22:01.403Z,25.37
2018-01-21T06:24:27.635Z,27.17
2018-01-21T06:26:53.842Z,23.85
2018-01-21T06:29:20.779Z,26.23
2018-01-21T06:31:47.018Z,25.75
2018-01-21T06:34:13.939Z,25.75
2018-01-21T06:36:40.114Z,26.87
2018-01-21T06:39:06.304Z,24.87
2018-01-21T06:41:32.507Z,27.67
2018-01-21T06:43:58.747Z,28.85
2018-01-21T06:46:25.700Z,25.90
2018-01-21T06:48:51.888Z,25.90
2018-01-21T06:51:18.834Z,25.98
2018-01-21T06:53:45.246Z,26.42
2018-01-21T06:56:11.448Z,26.23
2018-01-21T06:58:37.655Z,25.95
2018-01-21T07:01:03.903Z,25.88
2018-01-21T07:03:30.832Z,27.05
2018-01-21T07:05:57.780Z,26.02
2018-01-21T07:08:24.008Z,24.30
2018-01-21T07:10:50.235Z,25.85
2018-01-21T07:13:16.440Z,25.02
2018-01-21T07:15:42.646Z,24.73
2018-01-21T07:18:08.848Z,24.30
2018-01-21T07:20:35.024Z,24.90
2018-01-21T07:23:01.231Z,24.30
2018-01-21T07:25:28.190Z,24.10
2018-01-21T07:27:55.139Z,23.92
2018-01-21T07:30:22.116Z,25.90
2018-01-21T07:32:48.356Z,22.77
2018-01-21T07:35:14.584Z,21.30
2018-01-21T07:37:40.791Z,23.15
2018-01-21T07:40:07.007Z,22.80
2018-01-21T07:42:33.248Z,23.00
2018-01-21T07:44:59.450Z,23.83
2018-01-21T07:47:25.645Z,22.20
2018-01-21T07:49:52.600Z,23.30
2018-01-21T07:52:18.807Z,23.30
2018-01-21T07:54:45.840Z,23.20
2018-01-21T07:57:12.835Z,25.00
2018-01-21T07:59:39.061Z,20.77
2018-01-21T08:02:05.286Z,23.05
2018-01-21T08:04:31.444Z,23.62
2018-01-21T08:06:57.647Z,22.85
2018-01-21T08:09:23.848Z,24.20
2018-01-21T08:11:50.052Z,23.77
2018-01-21T08:14:17.028Z,21.48
2018-01-21T08:16:43.213Z,22.00
2018-01-21T08:19:10.155Z,23.80
2018-01-21T08:21:36.360Z,22.50
2018-01-21T08:24:02.582Z,22.87
2018-01-21T08:26:28.832Z,22.35
2018-01-21T08:28:55.081Z,23.95
2018-01-21T08:31:22.046Z,24.00
2018-01-21T08:33:54.387Z,21.17
2018-01-21T08:36:26.781Z,21.42
2018-01-21T08:38:59.896Z,22.02
2018-01-21T08:41:28.691Z,20.62
2018-01-21T08:43:55.611Z,18.48
2018-01-21T08:46:21.815Z,19.80
2018-01-21T08:48:48.028Z,18.95
2018-01-21T08:51:14.223Z,17.60
2018-01-21T08:53:40.421Z,18.45
2018-01-21T08:56:06.701Z,19.70
2018-01-21T08:58:33.674Z,17.08
2018-01-21T09:01:00.626Z,16.40
2018-01-21T09:03:26.851Z,18.60
2018-01-21T09:05:53.773Z,18.15
2018-01-21T09:08:19.956Z,18.12
2018-01-21T09:10:46.164Z,19.90
2018-01-21T09:13:13.094Z,18.58
2018-01-21T09:15:39.301Z,16.98
2018-01-21T09:18:05.503Z,18.50
2018-01-21T09:20:31.720Z,19.50
2018-01-21T09:22:58.652Z,18.62
2018-01-21T09:25:24.850Z,20.12
2018-01-21T09:27:51.100Z,17.87
2018-01-21T09:30:17.347Z,18.00
2018-01-21T09:32:43.565Z,16.90
2018-01-21T09:35:09.748Z,18.48
2018-01-21T09:37:35.962Z,17.73
2018-01-21T09:40:02.168Z,18.95
2018-01-21T09:42:28.401Z,19.95
2018-01-21T09:44:54.611Z,21.83
2018-01-21T09:47:20.804Z,20.83
2018-01-21T09:49:47.027Z,21.02
2018-01-21T09:52:13.975Z,21.00
2018-01-21T09:54:41.650Z,22.45
2018-01-21T09:57:08.693Z,22.15
2018-01-21T09:59:34.916Z,23.48
2018-01-21T10:02:01.111Z,21.95
2018-01-21T10:04:27.319Z,23.40
2018-01-21T10:06:54.243Z,22.85
2018-01-21T10:09:21.306Z,24.50
2018-01-21T10:11:48.283Z,23.60
2018-01-21T10:14:15.214Z,23.23
2018-01-21T10:16:42.210Z,21.77
2018-01-21T10:19:08.389Z,22.00
2018-01-21T10:21:35.333Z,21.58
2018-01-21T10:24:02.288Z,23.10
2018-01-21T10:26:28.566Z,21.25
2018-01-21T10:28:54.791Z,21.62
2018-01-21T10:31:21.048Z,20.12
2018-01-21T10:33:47.252Z,19.37
2018-01-21T10:36:14.181Z,19.12
2018-01-21T10:38:41.157Z,18.37
2018-01-21T10:41:07.349Z,19.65
2018-01-21T10:43:33.552Z,21.73
2018-01-21T10:45:59.804Z,21.60
2018-01-21T10:48:27.217Z,22.67
2018-01-21T10:50:53.724Z,20.70
2018-01-21T10:53:19.921Z,19.40
2018-01-21T10:55:46.104Z,19.60
2018-01-21T10:58:13.331Z,20.83
2018-01-21T11:00:46.406Z,21.30
2018-01-21T11:03:12.595Z,21.03
2018-01-21T11:05:38.792Z,20.12
2018-01-21T11:08:05.026Z,19.15
2018-01-21T11:10:31.216Z,19.42
2018-01-21T11:12:58.137Z,21.50
2018-01-21T11:15:24.351Z,20.20
2018-01-21T11:17:50.580Z,18.77
2018-01-21T11:20:16.775Z,19.87
2018-01-21T11:22:42.990Z,18.37
2018-01-21T11:25:09.208Z,20.92
2018-01-21T11:27:35.388Z,18.48
2018-01-21T11:30:01.595Z,18.02
2018-01-21T11:32:28.606Z,20.00
2018-01-21T11:34:55.272Z,19.30
2018-01-21T11:37:21.563Z,19.03
2018-01-21T11:39:47.757Z,19.23
2018-01-21T11:42:14.671Z,20.67
2018-01-21T11:44:40.895Z,19.02
2018-01-21T11:47:10.740Z,20.63
2018-01-21T11:49:34.016Z,20.60
2018-01-21T11:52:00.203Z,21.63
2018-01-21T11:54:26.391Z,22.08
2018-01-21T11:56:52.583Z,20.03
2018-01-21T11:59:18.865Z,20.33
2018-01-21T12:01:45.108Z,21.50
2018-01-21T12:04:11.394Z,20.73
2018-01-21T12:06:37.544Z,20.17
2018-01-21T12:09:03.744Z,18.90
2018-01-21T12:11:29.916Z,19.50
2018-01-21T12:13:56.881Z,20.23
2018-01-21T12:16:23.807Z,20.77
2018-01-21T12:18:49.984Z,20.33
2018-01-21T12:21:16.908Z,19.40
2018-01-21T12:23:43.092Z,18.17
2018-01-21T12:26:09.268Z,18.23
2018-01-21T12:28:35.452Z,19.27
2018-01-21T12:31:01.635Z,18.48
2018-01-21T12:33:27.824Z,18.75
2018-01-21T12:35:54.048Z,18.15
2018-01-21T12:38:20.263Z,19.85
2018-01-21T12:40:46.474Z,20.95
2018-01-21T12:43:12.688Z,17.25
2018-01-21T12:45:38.875Z,16.12
2018-01-21T12:48:05.068Z,17.90
2018-01-21T12:50:31.256Z,15.75
2018-01-21T12:52:57.459Z,17.85
2018-01-21T12:55:24.418Z,18.20
2018-01-21T12:57:50.631Z,15.13
2018-01-21T13:00:16.868Z,15.90
2018-01-21T13:02:43.799Z,15.98
2018-01-21T13:05:10.027Z,14.77
2018-01-21T13:07:36.224Z,15.82
2018-01-21T13:10:02.433Z,17.85
2018-01-21T13:14:53.688Z,16.80
2018-01-21T13:17:19.872Z,15.93
2018-01-21T13:19:46.052Z,16.83
2018-01-21T13:22:12.992Z,17.48
2018-01-21T13:24:39.915Z,19.30
2018-01-21T13:27:06.096Z,19.75
2018-01-21T13:29:33.035Z,18.80
2018-01-21T13:31:59.217Z,20.02
2018-01-21T13:34:25.395Z,19.33
2018-01-21T13:36:52.342Z,18.17
2018-01-21T13:39:19.276Z,18.83
2018-01-21T13:41:45.463Z,17.65
2018-01-21T13:44:11.708Z,17.65
2018-01-21T13:46:37.879Z,16.08
2018-01-21T13:49:04.052Z,15.50
2018-01-21T13:51:30.224Z,16.23
2018-01-21T13:53:56.396Z,17.48
2018-01-21T13:56:23.312Z,17.15
2018-01-21T13:58:49.520Z,18.02
2018-01-21T14:01:16.561Z,16.87
2018-01-21T14:03:42.751Z,18.12
2018-01-21T14:06:08.952Z,18.92
2018-01-21T14:08:35.875Z,16.73
2018-01-21T14:11:02.060Z,17.10
2018-01-21T14:13:28.310Z,16.70
2018-01-21T14:15:55.238Z,15.90
2018-01-21T14:18:21.415Z,16.37
2018-01-21T14:20:48.334Z,14.93
2018-01-21T14:23:14.500Z,14.27
2018-01-21T14:25:40.676Z,16.35
2018-01-21T14:28:06.887Z,15.75
2018-01-21T14:30:33.092Z,16.58
2018-01-21T14:33:00.025Z,18.30
2018-01-21T14:35:26.972Z,19.42
2018-01-21T14:37:53.160Z,17.58
2018-01-21T14:40:19.341Z,18.50
2018-01-21T14:42:45.579Z,19.27
2018-01-21T14:45:12.495Z,17.95
2018-01-21T14:47:38.684Z,17.40
2018-01-21T14:50:05.639Z,16.08
2018-01-21T14:52:32.559Z,14.63
2018-01-21T14:54:58.757Z,16.00
2018-01-21T14:57:24.975Z,17.50
2018-01-21T14:59:51.149Z,14.60
2018-01-21T15:02:17.400Z,14.27
2018-01-21T15:04:44.336Z,16.12
2018-01-21T15:07:10.523Z,15.55
2018-01-21T15:09:36.705Z,20.17
2018-01-21T15:12:02.902Z,17.70
2018-01-21T15:14:29.088Z,17.48
2018-01-21T15:16:55.258Z,18.17
2018-01-21T15:19:21.442Z,18.00
2018-01-21T15:21:47.651Z,16.37
2018-01-21T15:24:13.843Z,17.45
2018-01-21T15:26:40.054Z,18.23
2018-01-21T15:29:06.231Z,18.42
2018-01-21T15:31:32.414Z,19.17
2018-01-21T15:33:58.623Z,19.62
2018-01-21T15:36:24.799Z,19.48
2018-01-21T15:38:51.737Z,18.23
2018-01-21T15:41:17.939Z,18.70
2018-01-21T15:43:44.115Z,20.65
2018-01-21T15:46:11.027Z,20.05
2018-01-21T15:48:37.203Z,19.05
2018-01-21T15:51:04.112Z,19.67
2018-01-21T15:53:30.312Z,18.58
2018-01-21T15:55:57.239Z,18.75
2018-01-21T15:58:24.157Z,21.85
2018-01-21T16:00:50.360Z,21.30
2018-01-21T16:03:16.607Z,20.45
2018-01-21T16:05:42.844Z,20.62
2018-01-21T16:08:09.041Z,21.83
2018-01-21T16:10:35.265Z,21.15
2018-01-21T16:13:02.196Z,21.60
2018-01-21T16:15:29.135Z,22.83
2018-01-21T16:17:55.360Z,22.67
2018-01-21T16:20:22.312Z,24.60
2018-01-21T16:22:48.527Z,21.45
2018-01-21T16:25:14.736Z,23.08
2018-01-21T16:27:40.927Z,24.73
2018-01-21T16:30:08.599Z,24.10
2018-01-21T16:32:34.799Z,26.85
2018-01-21T16:35:00.978Z,23.05
2018-01-21T16:37:40.393Z,23.55
2018-01-21T16:40:06.512Z,23.85
2018-01-21T16:42:32.695Z,23.52
2018-01-21T16:44:58.928Z,24.60
2018-01-21T16:47:25.846Z,23.02
2018-01-21T16:49:52.052Z,20.88
2018-01-21T16:52:18.248Z,21.48
2018-01-21T16:54:44.434Z,23.02
2018-01-21T16:57:10.672Z,21.33
2018-01-21T16:59:36.983Z,19.60
2018-01-21T17:02:03.152Z,18.55
2018-01-21T17:04:29.425Z,20.12
2018-01-21T17:06:55.640Z,19.60
2018-01-21T17:09:22.565Z,18.60
2018-01-21T17:11:48.776Z,18.58
2018-01-21T17:14:14.978Z,18.55
2018-01-21T17:16:41.172Z,19.35
2018-01-21T17:19:07.409Z,18.37
2018-01-21T17:21:33.595Z,18.83
2018-01-21T17:23:59.783Z,18.92
2018-01-21T17:26:26.727Z,18.60
2018-01-21T17:28:52.948Z,19.10
2018-01-21T17:31:19.132Z,22.30
2018-01-21T17:33:45.323Z,19.87
2018-01-21T17:36:11.535Z,20.70
2018-01-21T17:38:37.713Z,21.40
2018-01-21T17:41:04.627Z,18.90
2018-01-21T17:43:30.856Z,19.83
2018-01-21T17:45:57.052Z,20.58
2018-01-21T17:48:23.261Z,20.55
2018-01-21T17:50:50.203Z,19.70
2018-01-21T17:53:16.410Z,19.55
2018-01-21T17:55:42.624Z,18.12
2018-01-21T17:58:08.824Z,19.60
2018-01-21T18:00:35.759Z,16.55
2018-01-21T18:03:01.940Z,18.98
2018-01-21T18:05:28.223Z,17.23
2018-01-21T18:07:55.185Z,17.73
2018-01-21T18:10:22.123Z,17.35
2018-01-21T18:12:48.325Z,16.08
2018-01-21T18:15:14.541Z,15.50
2018-01-21T18:17:40.748Z,16.52
2018-01-21T18:20:07.695Z,17.20
2018-01-21T18:22:34.616Z,18.30
2018-01-21T18:25:00.854Z,17.83
2018-01-21T18:27:27.089Z,17.77
2018-01-21T18:29:54.059Z,15.80
2018-01-21T18:32:21.004Z,16.15
2018-01-21T18:34:47.204Z,15.30
2018-01-21T18:37:14.144Z,15.60
2018-01-21T18:39:40.339Z,17.25
2018-01-21T18:42:07.282Z,15.65
2018-01-21T18:44:34.215Z,15.60
2018-01-21T18:47:00.418Z,15.85
2018-01-21T18:49:26.631Z,14.60
2018-01-21T18:51:52.808Z,14.38
2018-01-21T18:54:19.009Z,14.05
2018-01-21T18:56:45.240Z,15.55
2018-01-21T18:59:11.424Z,14.85
2018-01-21T19:01:37.605Z,15.88
2018-01-21T19:04:03.808Z,17.00
2018-01-21T19:06:30.901Z,18.17
2018-01-21T19:08:57.836Z,15.57
2018-01-21T19:11:24.028Z,17.48
2018-01-21T19:13:50.994Z,16.75
2018-01-21T19:16:17.924Z,16.42
2018-01-21T19:18:44.151Z,18.03
2018-01-21T19:21:11.103Z,18.33
2018-01-21T19:23:37.316Z,17.33
2018-01-21T19:26:03.548Z,17.67
2018-01-21T19:28:29.742Z,18.73
2018-01-21T19:30:56.668Z,19.60
2018-01-21T19:33:22.947Z,19.20
2018-01-21T19:35:49.140Z,18.58
2018-01-21T19:38:21.464Z,19.05
2018-01-21T19:40:47.695Z,19.02
2018-01-21T19:43:19.915Z,18.65
2018-01-21T19:45:46.112Z,19.50
2018-01-21T19:48:12.315Z,19.60
2018-01-21T19:50:38.507Z,20.27
2018-01-21T19:53:04.719Z,21.70
2018-01-21T19:55:30.977Z,22.27
2018-01-21T19:57:58.657Z,20.35
2018-01-21T20:00:25.607Z,20.23
2018-01-21T20:02:52.551Z,20.27
2018-01-21T20:05:18.801Z,20.23
2018-01-21T20:07:45.896Z,19.90
2018-01-21T20:10:13.704Z,20.58
2018-01-21T20:12:40.727Z,20.37
2018-01-21T20:15:06.928Z,21.25
2018-01-21T20:17:33.856Z,20.75
2018-01-21T20:20:00.046Z,21.55
2018-01-21T20:22:26.233Z,23.38
2018-01-21T20:24:53.192Z,19.95
2018-01-21T20:27:19.383Z,20.33
2018-01-21T20:29:45.591Z,19.48
2018-01-21T20:32:11.836Z,20.17
2018-01-21T20:34:38.029Z,20.75
2018-01-21T20:37:04.970Z,20.80
2018-01-21T20:39:31.928Z,20.88
2018-01-21T20:41:58.865Z,20.27
2018-01-21T20:44:25.793Z,22.27
2018-01-21T20:46:52.020Z,21.08
2018-01-21T20:49:18.215Z,20.70
2018-01-21T20:51:50.623Z,21.45
2018-01-21T20:54:23.020Z,22.65
2018-01-21T20:56:49.225Z,22.33
2018-01-21T20:59:15.416Z,21.62
2018-01-21T21:01:41.713Z,21.35
2018-01-21T21:04:07.943Z,22.60
2018-01-21T21:06:34.128Z,22.65
2018-01-21T21:09:01.148Z,23.40
2018-01-21T21:11:28.099Z,23.83
2018-01-21T21:13:54.323Z,22.62
2018-01-21T21:16:20.554Z,24.40
2018-01-21T21:18:46.751Z,21.67
2018-01-21T21:21:12.940Z,21.95
2018-01-21T21:23:39.911Z,22.62
2018-01-21T21:26:06.831Z,23.40
2018-01-21T21:28:33.783Z,25.08
2018-01-21T21:31:00.759Z,24.40
2018-01-21T21:33:27.775Z,24.58
2018-01-21T21:35:53.996Z,22.13
2018-01-21T21:38:21.727Z,23.50
2018-01-21T21:40:47.945Z,23.52
2018-01-21T21:43:14.895Z,23.10
2018-01-21T21:45:41.120Z,23.75
2018-01-21T21:48:07.364Z,22.95
2018-01-21T21:50:34.354Z,23.95
2018-01-21T21:53:00.570Z,24.83
2018-01-21T21:55:26.790Z,23.33
2018-01-21T21:57:53.780Z,22.37
2018-01-21T22:00:19.996Z,23.95
2018-01-21T22:02:46.400Z,23.50
2018-01-21T22:05:13.337Z,23.73
2018-01-21T22:07:39.573Z,22.90
2018-01-21T22:10:05.986Z,24.15
2018-01-21T22:12:32.195Z,23.35
2018-01-21T22:14:58.392Z,20.75
2018-01-21T22:17:24.601Z,23.30
2018-01-21T22:19:50.844Z,19.60
2018-01-21T22:22:17.844Z,22.73
2018-01-21T22:24:44.043Z,20.75
2018-01-21T22:27:10.247Z,22.58
2018-01-21T22:29:36.604Z,23.23
2018-01-21T22:32:02.806Z,24.87
2018-01-21T22:34:28.998Z,21.70
2018-01-21T22:36:55.954Z,23.70
2018-01-21T22:39:22.889Z,22.62
2018-01-21T22:41:49.095Z,21.48
2018-01-21T22:44:15.365Z,20.70
2018-01-21T22:46:42.295Z,21.10
2018-01-21T22:49:08.516Z,21.92
2018-01-21T22:51:34.733Z,21.73
2018-01-21T22:54:00.932Z,21.62
2018-01-21T22:56:27.139Z,22.83
2018-01-21T22:58:53.335Z,24.55
2018-01-21T23:01:19.571Z,22.85
2018-01-21T23:03:45.761Z,21.37
2018-01-21T23:06:12.696Z,21.00
2018-01-21T23:08:38.891Z,23.10
2018-01-21T23:11:05.230Z,21.90
2018-01-21T23:13:31.435Z,22.27
2018-01-21T23:15:57.611Z,20.48
2018-01-21T23:18:23.796Z,21.35
2018-01-21T23:21:00.259Z,22.20
2018-01-21T23:23:26.443Z,21.37
2018-01-21T23:25:52.635Z,22.83
2018-01-21T23:28:18.830Z,20.42
2018-01-21T23:30:45.792Z,21.45
2018-01-21T23:33:12.716Z,21.17
2018-01-21T23:35:38.907Z,22.33
2018-01-21T23:38:05.099Z,21.62
2018-01-21T23:40:31.274Z,23.40
2018-01-21T23:42:57.519Z,21.87
2018-01-21T23:45:23.697Z,22.75
2018-01-21T23:47:49.879Z,21.83
2018-01-21T23:50:16.073Z,21.12
2018-01-21T23:52:42.259Z,21.83
2018-01-21T23:55:08.459Z,21.23
2018-01-21T23:57:34.661Z,22.20
